Chesterville, Mississippi
Current Conditions -  °F | °C
As of 10:53 AM on Wednesday 26 Nov 2014 (Local Time) from KTUP Reporting Station
Clear Clear  
Wind Chill: 43°   Ceiling: Unl
Heat Index: 48°   Visibility: 10mi
Dew Point: 30°   Wind: 12mph
Humidity: 50%   Direction: 210°SSW
Pressure: 30.15"   Gusts: NA
Location:  34.2235°N, 88.7398°W
Report Text: KTUP 261653Z 21010KT 10SM CLR 09/M01 A3015 RMK AO2 SLP211 T00891011
Loading
Personal Weather Stations






























Interactive Weather Map New forecast layout! Learn more

10-Day Weather Forecast

Advertisements
Track Severe Weather on mobile